Aneta, North Dakota
Current Conditions -  °F | °C
As of 9:58 AM on Sunday 25 Jan 2015 (Local Time) from KRDR Reporting Station
Clear Clear  
Wind Chill: 15°   Ceiling: Unl
Heat Index: 15°   Visibility: 10mi
Dew Point:   Wind: 3mph
Humidity: 75%   Direction: 300°WNW
Pressure: 30.05"   Gusts: NA
Location:  47.68°N, 97.99°W
Report Text: KRDR 251558Z AUTO 30003KT 10SM CLR M09/M13 A3005 RMK AO2 SLP198 T10951132
Loading
Personal Weather Stations






























Interactive Weather Map New forecast layout! Learn more

10-Day Weather Forecast

Advertisements
Track Severe Weather on mobile